Wetterdaten: Montag, 26.03.2007
Datum Zeit Temp. A. Feuchte A. Luftdruck Regen Wind Richtung Richtung Sonnenschein UV Solar Windben
26.03.2007 00:00 9,3 C 61 % 1023,1 hPa 0,0 mm 0,0 km/h (0 Bft) O-SO 112 0 min 0 UV-I 0 W/m 3,2 km/h (1 Bft)
26.03.2007 00:10 9,2 C 61 % 1023,0 hPa 0,0 mm 0,0 km/h (0 Bft) O-SO 112 0 min 0 UV-I 0 W/m 3,2 km/h (1 Bft)
26.03.2007 00:20 9,2 C 61 % 1023,1 hPa 0,0 mm 0,0 km/h (0 Bft) O-NO 67 0 min 0 UV-I 0 W/m 4,8 km/h (1 Bft)
26.03.2007 00:30 9,1 C 61 % 1023,1 hPa 0,0 mm 0,0 km/h (0 Bft) O-NO 67 0 min 0 UV-I 0 W/m 3,2 km/h (1 Bft)
26.03.2007 00:40 9,1 C 60 % 1023,1 hPa 0,0 mm 1,6 km/h (1 Bft) O 90 0 min 0 UV-I 0 W/m 6,4 km/h (2 Bft)
26.03.2007 00:50 9,2 C 60 % 1023,1 hPa 0,0 mm 0,0 km/h (0 Bft) O 90 0 min 0 UV-I 0 W/m 6,4 km/h (2 Bft)
26.03.2007 01:00 9,2 C 61 % 1023,2 hPa 0,0 mm 1,6 km/h (1 Bft) O-NO 67 0 min 0 UV-I 0 W/m 3,2 km/h (1 Bft)
26.03.2007 01:10 9,0 C 62 % 1023,1 hPa 0,0 mm 0,0 km/h (0 Bft) O 90 0 min 0 UV-I 0 W/m 4,8 km/h (1 Bft)
26.03.2007 01:20 8,8 C 62 % 1023,1 hPa 0,0 mm 0,0 km/h (0 Bft) O 90 0 min 0 UV-I 0 W/m 3,2 km/h (1 Bft)
26.03.2007 01:30 8,6 C 63 % 1023,0 hPa 0,0 mm 0,0 km/h (0 Bft) O-SO 112 0 min 0 UV-I 0 W/m 3,2 km/h (1 Bft)
26.03.2007 01:40 8,5 C 63 % 1023,0 hPa 0,0 mm 1,6 km/h (1 Bft) O 90 0 min 0 UV-I 0 W/m 4,8 km/h (1 Bft)
26.03.2007 01:50 8,4 C 64 % 1023,0 hPa 0,0 mm 1,6 km/h (1 Bft) O-NO 67 0 min 0 UV-I 0 W/m 4,8 km/h (1 Bft)
26.03.2007 02:00 8,2 C 64 % 1023,0 hPa 0,0 mm 1,6 km/h (1 Bft) O-NO 67 0 min 0 UV-I 0 W/m 4,8 km/h (1 Bft)
26.03.2007 02:10 8,1 C 65 % 1022,9 hPa 0,0 mm 0,0 km/h (0 Bft) O 90 0 min 0 UV-I 0 W/m 3,2 km/h (1 Bft)
26.03.2007 02:20 7,9 C 65 % 1022,9 hPa 0,0 mm 0,0 km/h (0 Bft) O 90 0 min 0 UV-I 0 W/m 3,2 km/h (1 Bft)
26.03.2007 02:30 7,7 C 66 % 1022,9 hPa 0,0 mm 0,0 km/h (0 Bft) O 90 0 min 0 UV-I 0 W/m 3,2 km/h (1 Bft)
26.03.2007 02:40 7,6 C 66 % 1022,8 hPa 0,0 mm 1,6 km/h (1 Bft) O-NO 67 0 min 0 UV-I 0 W/m 4,8 km/h (1 Bft)
26.03.2007 02:50 7,4 C 67 % 1022,7 hPa 0,0 mm 1,6 km/h (1 Bft) O 90 0 min 0 UV-I 0 W/m 3,2 km/h (1 Bft)
26.03.2007 03:00 7,6 C 66 % 1022,7 hPa 0,0 mm 1,6 km/h (1 Bft) O 90 0 min 0 UV-I 0 W/m 4,8 km/h (1 Bft)
26.03.2007 03:10 7,5 C 67 % 1022,8 hPa 0,0 mm 1,6 km/h (1 Bft) O 90 0 min 0 UV-I 0 W/m 4,8 km/h (1 Bft)
26.03.2007 03:20 7,2 C 68 % 1022,9 hPa 0,0 mm 1,6 km/h (1 Bft) O 90 0 min 0 UV-I 0 W/m 4,8 km/h (1 Bft)
26.03.2007 03:30 7,2 C 68 % 1022,8 hPa 0,0 mm 1,6 km/h (1 Bft) O-NO 67 0 min 0 UV-I 0 W/m 4,8 km/h (1 Bft)
26.03.2007 03:40 7,2 C 68 % 1022,8 hPa 0,0 mm 0,0 km/h (0 Bft) O 90 0 min 0 UV-I 0 W/m 3,2 km/h (1 Bft)
26.03.2007 03:50 7,1 C 68 % 1022,8 hPa 0,0 mm 1,6 km/h (1 Bft) O 90 0 min 0 UV-I 0 W/m 4,8 km/h (1 Bft)
26.03.2007 04:00 7,0 C 69 % 1022,7 hPa 0,0 mm 1,6 km/h (1 Bft) O-NO 67 0 min 0 UV-I 0 W/m 4,8 km/h (1 Bft)
26.03.2007 04:10 7,0 C 69 % 1022,6 hPa 0,0 mm 1,6 km/h (1 Bft) O 90 0 min 0 UV-I 0 W/m 6,4 km/h (2 Bft)
26.03.2007 04:20 7,1 C 68 % 1022,5 hPa 0,0 mm 1,6 km/h (1 Bft) O 90 0 min 0 UV-I 0 W/m 9,7 km/h (2 Bft)
26.03.2007 04:30 7,2 C 68 % 1022,6 hPa 0,0 mm 3,2 km/h (1 Bft) O 90 0 min 0 UV-I 0 W/m 6,4 km/h (2 Bft)
26.03.2007 04:40 7,2 C 68 % 1022,6 hPa 0,0 mm 3,2 km/h (1 Bft) O 90 0 min 0 UV-I 0 W/m 9,7 km/h (2 Bft)
26.03.2007 04:50 7,2 C 68 % 1022,6 hPa 0,0 mm 3,2 km/h (1 Bft) O 90 0 min 0 UV-I 0 W/m 6,4 km/h (2 Bft)
26.03.2007 05:00 7,2 C 68 % 1022,5 hPa 0,0 mm 3,2 km/h (1 Bft) O 90 0 min 0 UV-I 0 W/m 6,4 km/h (2 Bft)
26.03.2007 05:10 7,3 C 67 % 1022,5 hPa 0,0 mm 3,2 km/h (1 Bft) O-NO 67 0 min 0 UV-I 0 W/m 9,7 km/h (2 Bft)
26.03.2007 05:20 7,3 C 67 % 1022,5 hPa 0,0 mm 3,2 km/h (1 Bft) O-NO 67 0 min 0 UV-I 0 W/m 8,0 km/h (2 Bft)
26.03.2007 05:30 7,2 C 68 % 1022,6 hPa 0,0 mm 1,6 km/h (1 Bft) O-NO 67 0 min 0 UV-I 0 W/m 6,4 km/h (2 Bft)
26.03.2007 05:40 6,9 C 69 % 1022,5 hPa 0,0 mm 1,6 km/h (1 Bft) O 90 0 min 0 UV-I 0 W/m 4,8 km/h (1 Bft)
26.03.2007 05:50 6,7 C 70 % 1022,6 hPa 0,0 mm 1,6 km/h (1 Bft) O-SO 112 0 min 0 UV-I 0 W/m 6,4 km/h (2 Bft)
26.03.2007 06:00 6,6 C 70 % 1022,6 hPa 0,0 mm 0,0 km/h (0 Bft) O 90 0 min 0 UV-I 0 W/m 4,8 km/h (1 Bft)
26.03.2007 06:10 6,6 C 70 % 1022,7 hPa 0,0 mm 1,6 km/h (1 Bft) O-SO 112 0 min 0 UV-I 0 W/m 4,8 km/h (1 Bft)
26.03.2007 06:20 6,6 C 70 % 1022,8 hPa 0,0 mm 0,0 km/h (0 Bft) O-SO 112 0 min 0 UV-I 0 W/m 4,8 km/h (1 Bft)
26.03.2007 06:30 6,5 C 70 % 1022,8 hPa 0,0 mm 0,0 km/h (0 Bft) O 90 0 min 0 UV-I 0 W/m 1,6 km/h (1 Bft)
26.03.2007 06:40 6,1 C 72 % 1023,0 hPa 0,0 mm 0,0 km/h (0 Bft) O 90 0 min 0 UV-I 0 W/m 1,6 km/h (1 Bft)
26.03.2007 06:50 5,6 C 74 % 1022,9 hPa 0,0 mm 0,0 km/h (0 Bft) N 360 0 min 0 UV-I 0 W/m 3,2 km/h (1 Bft)
26.03.2007 07:00 5,7 C 73 % 1022,9 hPa 0,0 mm 0,0 km/h (0 Bft) N 360 0 min 0 UV-I 0 W/m 1,6 km/h (1 Bft)
26.03.2007 07:10 5,8 C 72 % 1023,0 hPa 0,0 mm 0,0 km/h (0 Bft) N 360 0 min 0 UV-I 0 W/m 1,6 km/h (1 Bft)
26.03.2007 07:20 5,6 C 75 % 1023,0 hPa 0,0 mm 0,0 km/h (0 Bft) N 360 0 min 0 UV-I 0 W/m 3,2 km/h (1 Bft)
26.03.2007 07:30 5,2 C 76 % 1023,2 hPa 0,0 mm 0,0 km/h (0 Bft) N 0 10 min 0 UV-I 14 W/m 0,0 km/h (0 Bft)
26.03.2007 07:40 4,9 C 76 % 1023,2 hPa 0,0 mm 0,0 km/h (0 Bft) N 360 0 min 0 UV-I 21 W/m 1,6 km/h (1 Bft)
26.03.2007 07:50 4,8 C 77 % 1023,3 hPa 0,0 mm 0,0 km/h (0 Bft) N 0 0 min 0 UV-I 37 W/m 0,0 km/h (0 Bft)
26.03.2007 08:00 4,9 C 77 % 1023,4 hPa 0,0 mm 0,0 km/h (0 Bft) N 0 0 min 0 UV-I 56 W/m 0,0 km/h (0 Bft)
26.03.2007 08:10 4,9 C 77 % 1023,5 hPa 0,0 mm 0,0 km/h (0 Bft) N 0 10 min 0 UV-I 76 W/m 0,0 km/h (0 Bft)
26.03.2007 08:20 5,3 C 76 % 1023,6 hPa 0,0 mm 0,0 km/h (0 Bft) N 360 10 min 0 UV-I 91 W/m 1,6 km/h (1 Bft)
26.03.2007 08:30 6,2 C 70 % 1023,5 hPa 0,0 mm 0,0 km/h (0 Bft) N-NW 337 10 min 0 UV-I 120 W/m 3,2 km/h (1 Bft)
26.03.2007 08:40 7,4 C 65 % 1023,5 hPa 0,0 mm 1,6 km/h (1 Bft) O 90 10 min 0 UV-I 141 W/m 6,4 km/h (2 Bft)
26.03.2007 08:50 8,1 C 63 % 1023,5 hPa 0,0 mm 1,6 km/h (1 Bft) O 90 10 min 0 UV-I 167 W/m 6,4 km/h (2 Bft)
26.03.2007 09:00 8,5 C 61 % 1023,5 hPa 0,0 mm 1,6 km/h (1 Bft) O-NO 67 10 min 0 UV-I 192 W/m 8,0 km/h (2 Bft)
26.03.2007 09:10 8,8 C 61 % 1023,5 hPa 0,0 mm 1,6 km/h (1 Bft) O-NO 67 10 min 1 UV-I 220 W/m 6,4 km/h (2 Bft)
26.03.2007 09:20 9,1 C 59 % 1023,4 hPa 0,0 mm 3,2 km/h (1 Bft) O 90 10 min 1 UV-I 246 W/m 11,3 km/h (2 Bft)
26.03.2007 09:30 9,4 C 58 % 1023,3 hPa 0,0 mm 3,2 km/h (1 Bft) O 90 10 min 1 UV-I 272 W/m 11,3 km/h (2 Bft)
26.03.2007 09:40 9,9 C 56 % 1023,2 hPa 0,0 mm 3,2 km/h (1 Bft) O 90 10 min 1 UV-I 301 W/m 8,0 km/h (2 Bft)
26.03.2007 09:50 10,4 C 53 % 1023,1 hPa 0,0 mm 3,2 km/h (1 Bft) O-NO 67 10 min 1 UV-I 325 W/m 14,5 km/h (3 Bft)
26.03.2007 10:00 10,7 C 54 % 1023,2 hPa 0,0 mm 4,8 km/h (1 Bft) O-SO 112 10 min 1 UV-I 348 W/m 17,7 km/h (3 Bft)
26.03.2007 10:10 11,0 C 51 % 1023,1 hPa 0,0 mm 4,8 km/h (1 Bft) O 90 10 min 1 UV-I 376 W/m 11,3 km/h (2 Bft)
26.03.2007 10:20 11,4 C 50 % 1023,0 hPa 0,0 mm 4,8 km/h (1 Bft) O 90 10 min 1 UV-I 399 W/m 17,7 km/h (3 Bft)
26.03.2007 10:30 11,8 C 49 % 1023,0 hPa 0,0 mm 6,4 km/h (2 Bft) O 90 10 min 1 UV-I 429 W/m 20,9 km/h (4 Bft)
26.03.2007 10:40 12,1 C 47 % 1022,8 hPa 0,0 mm 6,4 km/h (2 Bft) O 90 10 min 1 UV-I 454 W/m 17,7 km/h (3 Bft)
26.03.2007 10:50 12,2 C 47 % 1022,8 hPa 0,0 mm 6,4 km/h (2 Bft) O 90 10 min 2 UV-I 476 W/m 20,9 km/h (4 Bft)
26.03.2007 11:00 12,6 C 46 % 1022,8 hPa 0,0 mm 8,0 km/h (2 Bft) O 90 10 min 2 UV-I 496 W/m 22,5 km/h (4 Bft)
26.03.2007 11:10 12,8 C 45 % 1022,7 hPa 0,0 mm 6,4 km/h (2 Bft) O 90 10 min 2 UV-I 510 W/m 20,9 km/h (4 Bft)
26.03.2007 11:20 13,1 C 43 % 1022,8 hPa 0,0 mm 6,4 km/h (2 Bft) O-SO 112 10 min 2 UV-I 531 W/m 19,3 km/h (3 Bft)
26.03.2007 11:30 13,3 C 42 % 1022,6 hPa 0,0 mm 6,4 km/h (2 Bft) O 90 10 min 2 UV-I 545 W/m 17,7 km/h (3 Bft)
26.03.2007 11:40 13,5 C 42 % 1022,7 hPa 0,0 mm 8,0 km/h (2 Bft) O-SO 112 10 min 2 UV-I 557 W/m 20,9 km/h (4 Bft)
26.03.2007 11:50 13,7 C 41 % 1022,5 hPa 0,0 mm 6,4 km/h (2 Bft) O-SO 112 10 min 2 UV-I 577 W/m 17,7 km/h (3 Bft)
26.03.2007 12:00 13,9 C 41 % 1022,5 hPa 0,0 mm 6,4 km/h (2 Bft) O-SO 112 10 min 2 UV-I 584 W/m 17,7 km/h (3 Bft)
26.03.2007 12:10 14,2 C 41 % 1022,5 hPa 0,0 mm 6,4 km/h (2 Bft) O 90 10 min 2 UV-I 598 W/m 17,7 km/h (3 Bft)
26.03.2007 12:20 14,5 C 39 % 1022,6 hPa 0,0 mm 4,8 km/h (1 Bft) O 90 10 min 2 UV-I 606 W/m 17,7 km/h (3 Bft)
26.03.2007 12:30 14,6 C 39 % 1022,4 hPa 0,0 mm 8,0 km/h (2 Bft) O 90 10 min 3 UV-I 624 W/m 19,3 km/h (3 Bft)
26.03.2007 12:40 14,7 C 36 % 1022,4 hPa 0,0 mm 8,0 km/h (2 Bft) O 90 10 min 3 UV-I 628 W/m 22,5 km/h (4 Bft)
26.03.2007 12:50 14,9 C 37 % 1022,3 hPa 0,0 mm 6,4 km/h (2 Bft) O 90 10 min 3 UV-I 638 W/m 16,1 km/h (3 Bft)
26.03.2007 13:00 15,1 C 36 % 1022,3 hPa 0,0 mm 6,4 km/h (2 Bft) O 90 10 min 3 UV-I 645 W/m 16,1 km/h (3 Bft)
26.03.2007 13:10 15,3 C 34 % 1022,3 hPa 0,0 mm 8,0 km/h (2 Bft) O-SO 112 10 min 3 UV-I 652 W/m 20,9 km/h (4 Bft)
26.03.2007 13:20 15,2 C 35 % 1022,2 hPa 0,0 mm 8,0 km/h (2 Bft) O 90 10 min 3 UV-I 654 W/m 22,5 km/h (4 Bft)
26.03.2007 13:30 15,5 C 35 % 1022,2 hPa 0,0 mm 6,4 km/h (2 Bft) O 90 10 min 3 UV-I 657 W/m 17,7 km/h (3 Bft)
26.03.2007 13:40 15,6 C 36 % 1022,1 hPa 0,0 mm 8,0 km/h (2 Bft) O 90 10 min 3 UV-I 649 W/m 22,5 km/h (4 Bft)
26.03.2007 13:50 15,7 C 34 % 1022,1 hPa 0,0 mm 6,4 km/h (2 Bft) O 90 10 min 3 UV-I 649 W/m 14,5 km/h (3 Bft)
26.03.2007 14:00 15,8 C 34 % 1021,9 hPa 0,0 mm 8,0 km/h (2 Bft) O 90 10 min 3 UV-I 643 W/m 24,1 km/h (4 Bft)
26.03.2007 14:10 15,9 C 33 % 1022,0 hPa 0,0 mm 6,4 km/h (2 Bft) O 90 10 min 3 UV-I 642 W/m 19,3 km/h (3 Bft)
26.03.2007 14:20 16,0 C 34 % 1021,8 hPa 0,0 mm 8,0 km/h (2 Bft) O 90 10 min 3 UV-I 649 W/m 20,9 km/h (4 Bft)
26.03.2007 14:30 16,1 C 32 % 1021,7 hPa 0,0 mm 8,0 km/h (2 Bft) O 90 10 min 3 UV-I 629 W/m 17,7 km/h (3 Bft)
26.03.2007 14:40 16,3 C 33 % 1021,7 hPa 0,0 mm 6,4 km/h (2 Bft) O 90 10 min 2 UV-I 619 W/m 19,3 km/h (3 Bft)
26.03.2007 14:50 16,6 C 31 % 1021,5 hPa 0,0 mm 6,4 km/h (2 Bft) O 90 10 min 2 UV-I 617 W/m 17,7 km/h (3 Bft)
26.03.2007 15:00 16,8 C 32 % 1021,4 hPa 0,0 mm 6,4 km/h (2 Bft) O 90 10 min 2 UV-I 608 W/m 16,1 km/h (3 Bft)
26.03.2007 15:10 16,8 C 30 % 1021,4 hPa 0,0 mm 6,4 km/h (2 Bft) O-SO 112 10 min 2 UV-I 598 W/m 17,7 km/h (3 Bft)
26.03.2007 15:20 16,7 C 30 % 1021,3 hPa 0,0 mm 8,0 km/h (2 Bft) O-SO 112 10 min 2 UV-I 589 W/m 19,3 km/h (3 Bft)
26.03.2007 15:30 16,8 C 30 % 1021,2 hPa 0,0 mm 8,0 km/h (2 Bft) O 90 10 min 2 UV-I 575 W/m 19,3 km/h (3 Bft)
26.03.2007 15:40 17,1 C 30 % 1020,9 hPa 0,0 mm 8,0 km/h (2 Bft) O 90 10 min 2 UV-I 564 W/m 20,9 km/h (4 Bft)
26.03.2007 15:50 17,1 C 31 % 1020,8 hPa 0,0 mm 4,8 km/h (1 Bft) O 90 10 min 2 UV-I 550 W/m 19,3 km/h (3 Bft)
26.03.2007 16:00 17,3 C 32 % 1020,7 hPa 0,0 mm 4,8 km/h (1 Bft) O 90 10 min 2 UV-I 540 W/m 17,7 km/h (3 Bft)
26.03.2007 16:10 17,3 C 32 % 1020,6 hPa 0,0 mm 6,4 km/h (2 Bft) O 90 10 min 2 UV-I 517 W/m 17,7 km/h (3 Bft)
26.03.2007 16:20 17,3 C 30 % 1020,5 hPa 0,0 mm 6,4 km/h (2 Bft) O-SO 112 10 min 2 UV-I 506 W/m 19,3 km/h (3 Bft)
26.03.2007 16:30 17,3 C 30 % 1020,5 hPa 0,0 mm 8,0 km/h (2 Bft) O-SO 112 10 min 1 UV-I 482 W/m 19,3 km/h (3 Bft)
26.03.2007 16:40 17,4 C 29 % 1020,4 hPa 0,0 mm 6,4 km/h (2 Bft) O-SO 112 10 min 1 UV-I 455 W/m 22,5 km/h (4 Bft)
26.03.2007 16:50 17,4 C 29 % 1020,3 hPa 0,0 mm 6,4 km/h (2 Bft) O-SO 112 10 min 1 UV-I 441 W/m 14,5 km/h (3 Bft)
26.03.2007 17:00 17,2 C 29 % 1020,3 hPa 0,0 mm 8,0 km/h (2 Bft) O-SO 112 10 min 1 UV-I 413 W/m 22,5 km/h (4 Bft)
26.03.2007 17:10 17,2 C 29 % 1020,3 hPa 0,0 mm 6,4 km/h (2 Bft) O 90 10 min 1 UV-I 388 W/m 17,7 km/h (3 Bft)
26.03.2007 17:20 17,1 C 29 % 1020,3 hPa 0,0 mm 6,4 km/h (2 Bft) O-SO 112 10 min 1 UV-I 359 W/m 19,3 km/h (3 Bft)
26.03.2007 17:30 17,1 C 30 % 1020,2 hPa 0,0 mm 6,4 km/h (2 Bft) O 90 10 min 1 UV-I 334 W/m 22,5 km/h (4 Bft)
26.03.2007 17:40 16,9 C 31 % 1020,2 hPa 0,0 mm 6,4 km/h (2 Bft) O-SO 112 10 min 1 UV-I 309 W/m 17,7 km/h (3 Bft)
26.03.2007 17:50 16,9 C 31 % 1020,2 hPa 0,0 mm 4,8 km/h (1 Bft) O 90 10 min 1 UV-I 281 W/m 20,9 km/h (4 Bft)
26.03.2007 18:00 16,9 C 39 % 1020,2 hPa 0,0 mm 3,2 km/h (1 Bft) O 90 10 min 1 UV-I 246 W/m 14,5 km/h (3 Bft)
26.03.2007 18:10 16,6 C 40 % 1020,2 hPa 0,0 mm 4,8 km/h (1 Bft) O 90 10 min 0 UV-I 218 W/m 16,1 km/h (3 Bft)
26.03.2007 18:20 16,3 C 41 % 1020,4 hPa 0,0 mm 3,2 km/h (1 Bft) O 90 10 min 0 UV-I 188 W/m 8,0 km/h (2 Bft)
26.03.2007 18:30 16,1 C 41 % 1020,4 hPa 0,0 mm 3,2 km/h (1 Bft) O 90 10 min 0 UV-I 162 W/m 8,0 km/h (2 Bft)
26.03.2007 18:40 15,8 C 41 % 1020,5 hPa 0,0 mm 1,6 km/h (1 Bft) O 90 10 min 0 UV-I 135 W/m 6,4 km/h (2 Bft)
26.03.2007 18:50 15,6 C 43 % 1020,6 hPa 0,0 mm 1,6 km/h (1 Bft) O 90 10 min 0 UV-I 111 W/m 8,0 km/h (2 Bft)
26.03.2007 19:00 15,2 C 44 % 1020,7 hPa 0,0 mm 1,6 km/h (1 Bft) O-NO 67 10 min 0 UV-I 88 W/m 6,4 km/h (2 Bft)
26.03.2007 19:10 14,8 C 45 % 1020,9 hPa 0,0 mm 3,2 km/h (1 Bft) O 90 10 min 0 UV-I 63 W/m 8,0 km/h (2 Bft)
26.03.2007 19:20 14,4 C 46 % 1020,9 hPa 0,0 mm 1,6 km/h (1 Bft) O 90 0 min 0 UV-I 28 W/m 6,4 km/h (2 Bft)
26.03.2007 19:30 14,0 C 46 % 1020,9 hPa 0,0 mm 3,2 km/h (1 Bft) O-NO 67 10 min 0 UV-I 19 W/m 8,0 km/h (2 Bft)
26.03.2007 19:40 13,7 C 47 % 1021,1 hPa 0,0 mm 1,6 km/h (1 Bft) O 90 0 min 0 UV-I 12 W/m 11,3 km/h (2 Bft)
26.03.2007 19:50 13,3 C 48 % 1021,2 hPa 0,0 mm 1,6 km/h (1 Bft) O 90 0 min 0 UV-I 0 W/m 9,7 km/h (2 Bft)
26.03.2007 20:00 13,1 C 48 % 1021,3 hPa 0,0 mm 1,6 km/h (1 Bft) O 90 0 min 0 UV-I 0 W/m 8,0 km/h (2 Bft)
26.03.2007 20:10 12,6 C 50 % 1021,3 hPa 0,0 mm 1,6 km/h (1 Bft) O-NO 67 0 min 0 UV-I 0 W/m 8,0 km/h (2 Bft)
26.03.2007 20:20 12,3 C 49 % 1021,3 hPa 0,0 mm 1,6 km/h (1 Bft) O 90 0 min 0 UV-I 0 W/m 6,4 km/h (2 Bft)
26.03.2007 20:30 12,2 C 46 % 1021,3 hPa 0,0 mm 3,2 km/h (1 Bft) O 90 0 min 0 UV-I 0 W/m 11,3 km/h (2 Bft)
26.03.2007 20:40 12,3 C 45 % 1021,4 hPa 0,0 mm 3,2 km/h (1 Bft) O 90 0 min 0 UV-I 0 W/m 9,7 km/h (2 Bft)
26.03.2007 20:50 12,3 C 44 % 1021,4 hPa 0,0 mm 3,2 km/h (1 Bft) O 90 0 min 0 UV-I 0 W/m 11,3 km/h (2 Bft)
26.03.2007 21:00 12,3 C 43 % 1021,5 hPa 0,0 mm 3,2 km/h (1 Bft) O 90 0 min 0 UV-I 0 W/m 17,7 km/h (3 Bft)
26.03.2007 21:10 12,2 C 43 % 1021,5 hPa 0,0 mm 3,2 km/h (1 Bft) O 90 0 min 0 UV-I 0 W/m 11,3 km/h (2 Bft)
26.03.2007 21:20 12,1 C 43 % 1021,5 hPa 0,0 mm 3,2 km/h (1 Bft) O 90 0 min 0 UV-I 0 W/m 12,9 km/h (3 Bft)
26.03.2007 21:30 12,0 C 43 % 1021,5 hPa 0,0 mm 4,8 km/h (1 Bft) O 90 0 min 0 UV-I 0 W/m 19,3 km/h (3 Bft)
26.03.2007 21:40 12,0 C 43 % 1021,4 hPa 0,0 mm 4,8 km/h (1 Bft) O 90 0 min 0 UV-I 0 W/m 12,9 km/h (3 Bft)
26.03.2007 21:50 11,9 C 43 % 1021,4 hPa 0,0 mm 4,8 km/h (1 Bft) O-SO 112 0 min 0 UV-I 0 W/m 11,3 km/h (2 Bft)
26.03.2007 22:00 11,8 C 43 % 1021,5 hPa 0,0 mm 4,8 km/h (1 Bft) O 90 0 min 0 UV-I 0 W/m 11,3 km/h (2 Bft)
26.03.2007 22:10 11,6 C 44 % 1021,5 hPa 0,0 mm 3,2 km/h (1 Bft) O 90 0 min 0 UV-I 0 W/m 11,3 km/h (2 Bft)
26.03.2007 22:20 11,4 C 43 % 1021,5 hPa 0,0 mm 4,8 km/h (1 Bft) O 90 0 min 0 UV-I 0 W/m 12,9 km/h (3 Bft)
26.03.2007 22:30 11,3 C 43 % 1021,6 hPa 0,0 mm 3,2 km/h (1 Bft) O-SO 112 0 min 0 UV-I 0 W/m 8,0 km/h (2 Bft)
26.03.2007 22:40 11,2 C 43 % 1021,6 hPa 0,0 mm 4,8 km/h (1 Bft) O-SO 112 0 min 0 UV-I 0 W/m 12,9 km/h (3 Bft)
26.03.2007 22:50 11,1 C 43 % 1021,6 hPa 0,0 mm 3,2 km/h (1 Bft) O 90 0 min 0 UV-I 0 W/m 16,1 km/h (3 Bft)
26.03.2007 23:00 10,9 C 45 % 1021,6 hPa 0,0 mm 3,2 km/h (1 Bft) O 90 0 min 0 UV-I 0 W/m 9,7 km/h (2 Bft)
26.03.2007 23:10 10,7 C 45 % 1021,6 hPa 0,0 mm 1,6 km/h (1 Bft) O-SO 112 0 min 0 UV-I 0 W/m 9,7 km/h (2 Bft)
26.03.2007 23:20 10,6 C 45 % 1021,6 hPa 0,0 mm 1,6 km/h (1 Bft) O 90 0 min 0 UV-I 0 W/m 6,4 km/h (2 Bft)
26.03.2007 23:30 10,4 C 46 % 1021,6 hPa 0,0 mm 1,6 km/h (1 Bft) O-NO 67 0 min 0 UV-I 0 W/m 4,8 km/h (1 Bft)
26.03.2007 23:40 10,2 C 46 % 1021,7 hPa 0,0 mm 1,6 km/h (1 Bft) O-SO 112 0 min 0 UV-I 0 W/m 6,4 km/h (2 Bft)
26.03.2007 23:50 10,1 C 46 % 1021,7 hPa 0,0 mm 1,6 km/h (1 Bft) O-NO 67 0 min 0 UV-I 0 W/m 6,4 km/h (2 Bft)
_ Min-Zeit 07:50 16:40 17:30 - 00:00 - - - - - 07:30
Minimum _ 4,8 C 29 % 1020,2 hPa - 0,0 km/h (0 Bft) - - - - - 0,0 km/h (0 Bft)
_ Max-Zeit 16:50 07:50 08:20 00:00 11:00 - - 07:30 12:30 13:30 14:00
Maximum _ 17,5 C 77 % 1023,6 hPa 0,0 mm 8,0 km/h
O (2 Bft)
- - 10 min 3 UV-I 657 W/m 24,1 km/h
N (4 Bft)
Durchschnitt _ 11,4 C 51 % 1022,1 hPa #0,0 mm 3,4 km/h (1 Bft) O - #11:30 h 2 UV-I 394 W/m 10,9 km/h (2 Bft)